Time;durP1;ratioP1;P1;durP2;ratioP2;P2;SDS_P1;SDS_P2;PMS_P1;PMS_P2;Temp;Humidity;BMP_temperature;BMP_pressure;BME280_temperature;BME280_humidity;BME280_pressure;Samples;Min_cycle;Max_cycle;Signal;HPM_P1;HPM_P2
2022/09/04 00:00:20;;;;;;;5.08;4.08;;;;;;;12.24;91.44;96787.04;1729915;82;21063;-87
2022/09/04 00:03:19;;;;;;;4.20;3.60;;;;;;;12.25;91.46;96788.66;1739602;82;20972;-88
2022/09/04 00:05:55;;;;;;;4.25;3.85;;;;;;;12.24;91.54;96792.25;1723218;82;20936;-88
2022/09/04 00:08:32;;;;;;;4.00;3.60;;;;;;;12.21;91.56;96792.13;1749226;82;20975;-88
2022/09/04 00:11:26;;;;;;;4.25;3.58;;;;;;;12.20;91.51;96790.98;1739261;82;21018;-88
2022/09/04 00:14:00;;;;;;;3.95;3.52;;;;;;;12.19;91.59;96796.68;1725184;82;20924;-88
2022/09/04 00:16:46;;;;;;;4.35;3.77;;;;;;;12.18;91.50;96792.95;1735990;82;20979;-86
2022/09/04 00:19:34;;;;;;;3.50;3.20;;;;;;;12.18;91.50;96798.17;1720057;82;21012;-88
2022/09/04 00:22:04;;;;;;;3.27;2.98;;;;;;;12.18;91.44;96798.17;1732532;82;20963;-88
2022/09/04 00:24:41;;;;;;;3.50;3.20;;;;;;;12.18;91.43;96799.47;1723486;82;21003;-88
2022/09/04 00:27:12;;;;;;;4.60;3.40;;;;;;;12.18;91.59;96790.35;1733673;82;20983;-88
2022/09/04 00:29:47;;;;;;;4.70;4.17;;;;;;;12.18;91.59;96795.56;1713765;82;21391;-89
2022/09/04 00:32:41;;;;;;;3.80;3.40;;;;;;;12.17;91.73;96796.06;1740707;82;20979;-88
2022/09/04 00:35:21;;;;;;;3.95;3.55;;;;;;;12.16;91.93;96791.84;1747499;82;20952;-88
2022/09/04 00:38:15;;;;;;;3.67;3.37;;;;;;;12.16;91.93;96793.64;1733390;82;21055;-88
2022/09/04 00:41:05;;;;;;;3.85;3.42;;;;;;;12.17;91.88;96792.64;1735584;82;21263;-90
2022/09/04 00:44:00;;;;;;;3.70;3.30;;;;;;;12.17;92.06;96797.86;1719829;82;20995;-90
2022/09/04 00:47:04;;;;;;;4.22;3.58;;;;;;;12.17;92.06;96792.16;1727029;82;20990;-88
2022/09/04 00:50:10;;;;;;;3.65;3.30;;;;;;;12.19;92.00;96794.57;1741682;82;20959;-86
2022/09/04 00:53:06;;;;;;;4.15;3.35;;;;;;;12.19;92.17;96792.77;1743484;82;21442;-89
2022/09/04 00:55:58;;;;;;;4.42;3.08;;;;;;;12.20;92.05;96797.02;1720765;82;20952;-89
2022/09/04 00:59:03;;;;;;;4.92;3.35;;;;;;;12.22;92.06;96800.75;1724778;82;22269;-89
2022/09/04 01:01:28;;;;;;;4.35;3.12;;;;;;;12.22;92.17;96802.86;1730099;81;21484;-89
2022/09/04 01:04:28;;;;;;;3.30;2.95;;;;;;;12.23;92.20;96804.97;1716785;81;20932;-87
2022/09/04 01:07:16;;;;;;;3.75;3.05;;;;;;;12.22;92.24;96807.26;1715972;81;20979;-86
2022/09/04 01:10:08;;;;;;;3.55;3.02;;;;;;;12.21;92.27;96807.75;1719731;82;21947;-86
2022/09/04 01:12:44;;;;;;;3.42;3.05;;;;;;;12.20;92.36;96806.14;1725082;81;20943;-87
2022/09/04 01:15:48;;;;;;;3.72;3.25;;;;;;;12.19;92.41;96803.69;1715722;82;21343;-87
2022/09/04 01:18:47;;;;;;;3.25;2.90;;;;;;;12.19;92.52;96803.20;1709703;81;20975;-87
2022/09/04 01:21:29;;;;;;;6.12;3.58;;;;;;;12.21;92.68;96803.05;1719879;81;20987;-86
2022/09/04 01:24:42;;;;;;;3.15;2.80;;;;;;;12.24;92.79;96806.58;1709194;82;20932;-87
2022/09/04 01:27:10;;;;;;;;;;;;;;;12.26;92.78;96791.57;1717517;81;20978;-87
2022/09/04 01:30:07;;;;;;;4.33;2.70;;;;;;;12.29;92.92;96805.53;1698377;82;20088;-88
2022/09/04 01:33:18;;;;;;;3.10;2.58;;;;;;;12.28;92.91;96797.41;1685718;83;21035;-88
2022/09/04 01:36:21;;;;;;;3.15;2.85;;;;;;;12.29;92.84;96804.23;1709159;81;20968;-88
2022/09/04 01:38:57;;;;;;;3.30;3.00;;;;;;;12.31;92.84;96806.16;1719274;81;21317;-87
2022/09/04 01:41:32;;;;;;;3.02;2.40;;;;;;;12.31;92.87;96804.36;1705742;82;20959;-87
2022/09/04 01:43:58;;;;;;;3.15;2.47;;;;;;;12.33;92.82;96804.17;1728164;81;20956;-87
2022/09/04 01:46:50;;;;;;;2.75;2.47;;;;;;;12.35;92.98;96808.70;1743404;81;20986;-87
2022/09/04 01:49:24;;;;;;;3.72;2.77;;;;;;;12.36;93.00;96810.31;1696396;82;20999;-87
2022/09/04 01:52:27;;;;;;;3.17;2.77;;;;;;;12.37;93.24;96809.36;1729417;81;20967;-87
2022/09/04 01:55:25;;;;;;;3.35;2.70;;;;;;;12.37;93.20;96806.75;1716657;81;20956;-86
2022/09/04 01:58:28;;;;;;;3.65;2.90;;;;;;;12.39;93.32;96803.46;1699454;82;21001;-87
2022/09/04 02:01:35;;;;;;;2.67;2.47;;;;;;;12.40;93.29;96801.17;1703730;82;21469;-87
2022/09/04 02:04:24;;;;;;;3.77;2.83;;;;;;;12.41;93.09;96802.78;1716481;81;21360;-87
2022/09/04 02:07:07;;;;;;;3.70;2.50;;;;;;;12.40;92.79;96808.98;1708658;81;21010;-87
2022/09/04 02:09:57;;;;;;;2.40;2.20;;;;;;;12.41;92.82;96813.20;1706045;81;21018;-87
2022/09/04 02:12:37;;;;;;;3.12;2.62;;;;;;;12.42;92.86;96810.10;1724213;81;21027;-88
2022/09/04 02:15:36;;;;;;;2.95;2.65;;;;;;;12.42;92.96;96809.61;1706845;81;21053;-87
2022/09/04 02:18:31;;;;;;;3.05;2.75;;;;;;;12.42;92.99;96804.89;1708413;81;20939;-88
2022/09/04 02:21:28;;;;;;;3.58;3.20;;;;;;;12.44;92.83;96806.32;1723337;81;21003;-87
2022/09/04 02:24:09;;;;;;;3.72;2.62;;;;;;;12.43;92.92;96802.09;1714637;81;21040;-87
2022/09/04 02:27:04;;;;;;;4.20;2.92;;;;;;;12.43;92.99;96803.41;1730221;81;21020;-88
2022/09/04 02:29:50;;;;;;;3.50;2.60;;;;;;;12.43;92.84;96798.69;1710983;82;21341;-87
2022/09/04 02:32:31;;;;;;;3.70;3.00;;;;;;;12.43;93.01;96803.41;1728954;82;21007;-88
2022/09/04 02:35:17;;;;;;;4.62;2.83;;;;;;;12.43;93.14;96800.80;1724276;81;20994;-89
2022/09/04 02:38:07;;;;;;;4.35;2.92;;;;;;;12.42;93.06;96801.79;1734278;82;21008;-89
2022/09/04 02:40:57;;;;;;;3.58;3.25;;;;;;;12.42;93.12;96799.19;1713734;81;21408;-89
2022/09/04 02:43:45;;;;;;;4.17;3.50;;;;;;;12.42;93.08;96804.39;1724839;82;21000;-89
2022/09/04 02:46:49;;;;;;;2.87;2.67;;;;;;;12.43;92.83;96806.50;1713957;81;20991;-89
2022/09/04 02:49:38;;;;;;;3.50;3.20;;;;;;;12.43;92.80;96798.69;1706666;81;20967;-87
2022/09/04 02:52:39;;;;;;;4.25;3.52;;;;;;;12.41;92.89;96800.17;1713110;81;20995;-87
2022/09/04 02:55:43;;;;;;;4.28;3.70;;;;;;;12.43;93.16;96799.98;1722597;81;20946;-88
2022/09/04 02:58:51;;;;;;;3.85;3.35;;;;;;;12.43;93.28;96793.48;1712181;81;20951;-87
2022/09/04 03:01:50;;;;;;;4.05;3.22;;;;;;;12.43;93.39;96788.27;1710297;81;21064;-87
2022/09/04 03:04:34;;;;;;;4.87;2.77;;;;;;;12.46;93.54;96785.28;1685386;84;21007;-87
2022/09/04 03:07:36;;;;;;;3.90;2.50;;;;;;;12.46;93.39;96784.78;1692512;83;21018;-87
2022/09/04 03:10:22;;;;;;;3.50;2.65;;;;;;;12.46;93.33;96788.70;1715150;83;20947;-89
2022/09/04 03:13:02;;;;;;;7.25;2.72;;;;;;;12.47;93.46;96779.88;1707049;83;20956;-89
2022/09/04 03:15:56;;;;;;;4.20;2.55;;;;;;;12.50;93.49;96783.42;1721032;83;20932;-89
2022/09/04 03:18:48;;;;;;;3.30;3.00;;;;;;;12.51;93.55;96777.22;1711041;83;21012;-89
2022/09/04 03:21:19;;;;;;;2.62;2.42;;;;;;;12.53;93.62;96781.77;1710887;83;21004;-87
2022/09/04 03:23:55;;;;;;;2.52;2.20;;;;;;;12.56;93.50;96784.50;1685955;83;20990;-87
2022/09/04 03:26:26;;;;;;;3.22;2.50;;;;;;;12.59;93.65;96799.28;1714486;83;20960;-87
2022/09/04 03:29:10;;;;;;;3.22;2.80;;;;;;;12.60;93.55;96794.38;1717691;83;20960;-87
2022/09/04 03:31:47;;;;;;;2.75;2.47;;;;;;;12.63;93.75;96794.50;1705701;83;21114;-87
2022/09/04 03:34:34;;;;;;;4.10;3.25;;;;;;;12.65;93.44;96791.20;1711394;83;21032;-87
2022/09/04 03:37:23;;;;;;;4.03;2.92;;;;;;;12.70;93.58;96793.28;1698421;82;20971;-87
2022/09/04 03:40:16;;;;;;;4.53;2.80;;;;;;;12.72;93.41;96796.02;1697008;83;21382;-86
2022/09/04 03:43:05;;;;;;;2.85;2.47;;;;;;;12.74;93.30;96790.61;1703796;83;20939;-87
2022/09/04 03:46:13;;;;;;;3.60;3.30;;;;;;;12.76;93.38;96795.95;1696012;83;20999;-87
2022/09/04 03:48:45;;;;;;;3.42;3.08;;;;;;;12.65;93.39;96770.84;1626853;86;20983;-87
2022/09/04 03:51:24;;;;;;;3.50;2.90;;;;;;;12.79;93.54;96793.45;1695309;82;20995;-87
2022/09/04 03:54:12;;;;;;;3.20;2.77;;;;;;;12.82;93.72;96795.69;1723334;80;21109;-87
2022/09/04 03:57:11;;;;;;;4.17;3.20;;;;;;;12.84;93.73;96793.70;1695883;83;20995;-87
2022/09/04 04:00:12;;;;;;;4.22;3.42;;;;;;;12.87;93.83;96793.36;1668154;85;21015;-87
2022/09/04 04:03:18;;;;;;;4.17;3.77;;;;;;;12.87;94.07;96787.64;1689571;83;21060;-87
2022/09/04 04:06:19;;;;;;;5.45;4.03;;;;;;;12.85;94.16;96780.97;1671214;83;20977;-87
2022/09/04 04:09:13;;;;;;;4.37;3.98;;;;;;;12.90;94.01;96791.17;1677758;83;20984;-87
2022/09/04 04:12:01;;;;;;;4.87;3.75;;;;;;;12.91;94.10;96790.67;1686186;83;20998;-87
2022/09/04 04:15:15;;;;;;;3.90;3.50;;;;;;;12.95;94.22;96794.52;1676530;83;21003;-87
2022/09/04 04:17:49;;;;;;;4.30;3.52;;;;;;;12.96;94.05;96803.16;1675375;83;20945;-87
2022/09/04 04:20:53;;;;;;;4.28;3.83;;;;;;;12.95;93.84;96806.26;1680005;83;21067;-87
2022/09/04 04:24:01;;;;;;;4.05;3.65;;;;;;;12.99;93.92;96817.92;1634332;86;21024;-87
2022/09/04 04:26:57;;;;;;;3.90;3.58;;;;;;;13.02;93.83;96822.80;1687834;83;20995;-87
2022/09/04 04:29:50;;;;;;;5.03;4.50;;;;;;;13.07;93.97;96820.92;1692248;83;20963;-88
2022/09/04 04:32:33;;;;;;;5.90;4.10;;;;;;;13.07;93.92;96823.53;1693544;83;21067;-88
2022/09/04 04:35:18;;;;;;;5.03;4.42;;;;;;;13.06;93.85;96817.52;1667843;84;20948;-87
2022/09/04 04:38:17;;;;;;;4.60;4.03;;;;;;;13.10;94.12;96827.88;1695810;83;21003;-87
2022/09/04 04:41:13;;;;;;;5.30;4.12;;;;;;;13.14;94.44;96831.72;1669330;83;22700;-87
2022/09/04 04:44:16;;;;;;;6.85;4.47;;;;;;;13.15;93.95;96833.34;1677515;83;20988;-88
2022/09/04 04:47:04;;;;;;;6.10;4.30;;;;;;;13.17;94.05;96827.93;1691732;83;21065;-87
2022/09/04 04:49:41;;;;;;;6.08;4.03;;;;;;;13.18;94.11;96837.44;1678665;83;21027;-88
2022/09/04 04:52:39;;;;;;;5.08;4.12;;;;;;;13.18;94.12;96830.91;1677173;83;21370;-87
2022/09/04 04:55:17;;;;;;;4.58;3.75;;;;;;;13.21;94.08;96826.11;1674832;83;21068;-87
2022/09/04 04:58:00;;;;;;;4.33;3.70;;;;;;;13.24;94.27;96826.23;1689712;83;20995;-88
2022/09/04 05:00:54;;;;;;;4.40;3.67;;;;;;;13.28;94.45;96830.08;1676780;84;20995;-87
2022/09/04 05:03:49;;;;;;;5.78;4.65;;;;;;;13.31;94.48;96833.61;1695055;83;21103;-88
2022/09/04 05:06:42;;;;;;;4.92;3.98;;;;;;;13.36;94.39;96838.29;1677222;84;20917;-88
2022/09/04 05:09:30;;;;;;;;;;;;;;;13.43;94.18;96849.58;1689050;85;20973;-85
2022/09/04 05:12:16;;;;;;;4.20;3.50;;;;;;;13.49;94.43;96854.04;1661121;85;20424;-87
2022/09/04 05:14:56;;;;;;;6.97;4.30;;;;;;;13.54;94.49;96851.69;1679503;83;21477;-86
2022/09/04 05:17:30;;;;;;;4.92;3.60;;;;;;;13.59;94.86;96849.31;1726944;82;20993;-86
2022/09/04 05:20:27;;;;;;;4.25;3.85;;;;;;;13.63;95.10;96854.96;1736503;83;20961;-87
2022/09/04 05:23:27;;;;;;;5.55;4.72;;;;;;;13.70;95.45;96859.75;1711610;83;20981;-86
2022/09/04 05:26:11;;;;;;;5.28;4.78;;;;;;;13.77;95.09;96861.41;1723239;83;21010;-86
2022/09/04 05:29:05;;;;;;;6.50;4.60;;;;;;;13.85;94.32;96863.58;1683879;83;21401;-86
2022/09/04 05:31:51;;;;;;;5.67;4.70;;;;;;;13.88;94.37;96863.20;1723262;83;21063;-86
2022/09/04 05:34:48;;;;;;;5.00;4.58;;;;;;;13.98;94.36;96868.37;1723545;83;20968;-86
2022/09/04 05:37:56;;;;;;;6.10;5.15;;;;;;;14.04;94.43;96862.41;1719949;82;21012;-86
2022/09/04 05:40:30;;;;;;;6.58;4.70;;;;;;;14.10;94.69;96862.94;1729206;83;20957;-85
2022/09/04 05:43:52;;;;;;;6.20;5.60;;;;;;;14.17;94.36;96868.72;1723780;82;20969;-86
2022/09/04 05:46:53;;;;;;;7.53;6.67;;;;;;;14.22;94.14;96872.36;1718447;83;20917;-86
2022/09/04 05:50:00;;;;;;;7.33;6.43;;;;;;;14.29;93.46;96873.19;1716408;81;20960;-87
2022/09/04 05:52:50;;;;;;;7.05;6.30;;;;;;;14.34;93.73;96877.86;1712314;81;21003;-87
2022/09/04 05:55:51;;;;;;;8.25;7.30;;;;;;;14.39;93.48;96884.11;1658259;84;21016;-87
2022/09/04 05:58:54;;;;;;;7.30;6.60;;;;;;;14.47;93.27;96896.23;1704052;83;20978;-87
2022/09/04 06:01:56;;;;;;;10.50;7.83;;;;;;;14.56;92.89;96895.59;1695105;83;21050;-86
2022/09/04 06:04:50;;;;;;;7.60;6.90;;;;;;;14.63;92.88;96896.42;1706455;83;21373;-87
2022/09/04 06:07:39;;;;;;;7.47;6.78;;;;;;;14.67;92.93;96889.32;1729714;81;20953;-87
2022/09/04 06:10:35;;;;;;;7.65;6.95;;;;;;;14.71;93.20;96891.84;1746558;82;21082;-85
2022/09/04 06:13:33;;;;;;;7.62;6.87;;;;;;;14.76;93.18;96891.75;1738747;82;20960;-87
2022/09/04 06:16:21;;;;;;;8.33;7.40;;;;;;;14.78;93.17;96893.16;1742630;81;21007;-86
2022/09/04 06:19:16;;;;;;;11.00;8.15;;;;;;;14.79;93.03;96896.59;1718581;82;20998;-86
2022/09/04 06:22:22;;;;;;;10.50;9.45;;;;;;;14.77;93.16;96896.78;1746858;82;20996;-86
2022/09/04 06:25:25;;;;;;;10.78;9.40;;;;;;;14.75;92.44;96904.02;1733563;82;20956;-85
2022/09/04 06:28:25;;;;;;;11.25;10.03;;;;;;;14.63;90.71;96914.72;1737633;82;20971;-87
2022/09/04 06:31:21;;;;;;;10.88;9.30;;;;;;;14.48;90.91;96905.72;1748147;80;20987;-88
2022/09/04 06:34:11;;;;;;;11.10;9.80;;;;;;;14.45;91.37;96907.39;1722630;82;20979;-87
2022/09/04 06:37:24;;;;;;;11.45;9.45;;;;;;;14.37;90.84;96915.38;1734922;82;20996;-87
2022/09/04 06:40:07;;;;;;;11.22;9.80;;;;;;;14.39;91.70;96920.72;1742002;82;21014;-86
2022/09/04 06:42:48;;;;;;;10.25;9.25;;;;;;;14.47;92.04;96918.47;1750128;82;21028;-86
2022/09/04 06:45:28;;;;;;;10.35;9.45;;;;;;;14.51;92.02;96922.33;1745539;80;21074;-86
2022/09/04 06:48:19;;;;;;;10.25;9.15;;;;;;;14.56;91.88;96933.02;1732877;82;20964;-86
2022/09/04 06:51:03;;;;;;;11.38;9.73;;;;;;;14.62;91.66;96928.80;1753698;80;20960;-86
2022/09/04 06:53:42;;;;;;;10.60;9.00;;;;;;;14.70;91.86;96933.89;1750994;80;21011;-87
2022/09/04 06:56:17;;;;;;;10.48;8.60;;;;;;;14.76;91.36;96930.98;1748913;82;20964;-87
2022/09/04 06:59:00;;;;;;;11.63;9.13;;;;;;;14.81;91.78;96935.16;1738517;82;20952;-87
2022/09/04 07:01:49;;;;;;;10.05;8.95;;;;;;;14.87;92.07;96928.63;1740464;82;20959;-86
2022/09/04 07:05:08;;;;;;;9.38;8.45;;;;;;;14.93;91.72;96934.38;1701150;81;21436;-86
2022/09/04 07:08:24;;;;;;;9.65;8.65;;;;;;;14.91;91.49;96933.78;1682929;83;20993;-86
2022/09/04 07:11:19;;;;;;;10.30;9.28;;;;;;;14.95;91.30;96936.30;1700537;84;21033;-85
2022/09/04 07:14:24;;;;;;;10.40;9.18;;;;;;;14.97;91.79;96940.06;1701367;84;21073;-86
2022/09/04 07:17:14;;;;;;;10.05;9.03;;;;;;;15.00;91.81;96945.70;1699024;83;20975;-87
2022/09/04 07:19:53;;;;;;;9.60;8.48;;;;;;;15.00;91.41;96941.77;1653245;85;21040;-87
2022/09/04 07:22:55;;;;;;;9.80;8.70;;;;;;;15.03;91.13;96949.73;1645785;87;21004;-87
2022/09/04 07:25:40;;;;;;;9.08;8.18;;;;;;;14.98;90.97;96957.38;1644985;86;20980;-87
2022/09/04 07:28:23;;;;;;;9.70;8.73;;;;;;;14.91;89.65;96958.63;1647300;85;21004;-87
2022/09/04 07:30:54;;;;;;;10.32;9.33;;;;;;;14.81;89.27;96958.20;1658831;84;21056;-87
2022/09/04 07:33:35;;;;;;;8.95;8.05;;;;;;;14.75;89.66;96957.65;1668367;85;21181;-87
2022/09/04 07:36:24;;;;;;;9.60;8.65;;;;;;;14.74;90.17;96954.73;1694348;84;20961;-86
2022/09/04 07:39:22;;;;;;;9.98;9.08;;;;;;;14.76;90.44;96962.38;1688453;84;21026;-87
2022/09/04 07:42:08;;;;;;;9.78;8.78;;;;;;;14.80;90.43;96971.45;1683389;83;20935;-86
2022/09/04 07:45:12;;;;;;;10.30;9.30;;;;;;;14.82;90.79;96987.28;1692990;83;20975;-86
2022/09/04 07:48:20;;;;;;;9.78;8.85;;;;;;;14.86;91.05;96998.97;1689935;83;20959;-86
2022/09/04 07:51:08;;;;;;;10.43;9.23;;;;;;;14.86;90.84;97013.86;1682417;83;20966;-85
2022/09/04 07:53:53;;;;;;;11.00;9.78;;;;;;;14.84;90.53;97020.59;1667063;83;20955;-87
2022/09/04 07:56:48;;;;;;;11.30;10.15;;;;;;;14.84;90.14;97022.41;1691340;85;20970;-86
2022/09/04 07:59:54;;;;;;;10.78;9.20;;;;;;;14.85;90.36;97024.83;1692674;85;21309;-86
2022/09/04 08:02:28;;;;;;;10.78;9.68;;;;;;;14.91;90.30;97032.40;1686641;83;21057;-86
2022/09/04 08:05:20;;;;;;;11.65;9.50;;;;;;;14.92;89.80;97024.35;1687771;84;21347;-85
2022/09/04 08:08:23;;;;;;;10.93;9.73;;;;;;;14.86;89.86;97027.75;1680480;84;21046;-86
2022/09/04 08:10:59;;;;;;;10.45;8.93;;;;;;;14.87;90.16;97031.98;1667912;84;20969;-86
2022/09/04 08:13:36;;;;;;;10.45;9.45;;;;;;;14.90;89.62;97032.09;1692735;84;20961;-86
2022/09/04 08:16:13;;;;;;;10.45;9.30;;;;;;;14.95;89.86;97035.73;1684385;84;21026;-89
2022/09/04 08:19:18;;;;;;;10.18;9.18;;;;;;;15.05;90.55;97030.66;1698568;82;21029;-88
2022/09/04 08:21:45;;;;;;;11.25;9.93;;;;;;;15.10;89.88;97046.59;1689252;84;20915;-89
2022/09/04 08:24:46;;;;;;;10.93;9.80;;;;;;;15.18;90.13;97055.10;1662099;83;21070;-89
2022/09/04 08:27:46;;;;;;;11.28;9.45;;;;;;;15.24;89.61;97059.55;1682121;84;20968;-88
2022/09/04 08:30:13;;;;;;;10.45;9.15;;;;;;;15.27;88.88;97070.12;1727186;82;20961;-89
2022/09/04 08:33:17;;;;;;;11.00;9.63;;;;;;;15.26;88.07;97077.17;1718335;83;20988;-89
2022/09/04 08:36:09;;;;;;;9.95;9.05;;;;;;;15.24;87.80;97079.69;1718217;83;21051;-90
2022/09/04 08:39:04;;;;;;;9.83;8.85;;;;;;;15.20;87.37;97083.70;1659573;84;20983;-89
2022/09/04 08:41:54;;;;;;;10.58;9.30;;;;;;;15.25;88.06;97081.30;1725923;82;21441;-89
2022/09/04 08:44:50;;;;;;;12.28;10.10;;;;;;;15.40;88.86;97093.77;1715128;82;21420;-89
2022/09/04 08:47:50;;;;;;;11.68;9.03;;;;;;;15.47;88.37;97089.37;1723867;82;21396;-88
2022/09/04 08:50:38;;;;;;;9.70;8.70;;;;;;;15.53;88.48;97080.73;1720374;82;21351;-89
2022/09/04 08:53:41;;;;;;;10.45;8.70;;;;;;;15.67;88.16;97079.50;1705038;83;20980;-89
2022/09/04 08:56:24;;;;;;;9.43;8.40;;;;;;;15.76;88.05;97083.05;1665716;84;21062;-88
2022/09/04 08:59:28;;;;;;;7.33;6.50;;;;;;;15.85;88.22;97088.42;1762889;80;21022;-89
2022/09/04 09:02:31;;;;;;;16.85;12.10;;;;;;;15.96;87.27;97087.56;1689517;81;21066;-89
2022/09/04 09:05:30;;;;;;;6.25;5.28;;;;;;;16.05;87.50;97091.09;1763495;81;20987;-89
2022/09/04 09:08:16;;;;;;;7.25;6.45;;;;;;;16.04;84.10;97089.98;1730844;83;21113;-89
2022/09/04 09:11:12;;;;;;;6.45;5.50;;;;;;;16.07;85.60;97096.94;1719602;81;21094;-89
2022/09/04 09:14:12;;;;;;;5.47;4.95;;;;;;;16.13;84.26;97088.30;1755368;81;21009;-88
2022/09/04 09:17:12;;;;;;;6.33;5.62;;;;;;;16.21;83.71;97092.03;1720765;81;21030;-89
2022/09/04 09:19:45;;;;;;;6.00;5.40;;;;;;;16.28;84.76;97091.25;1733206;81;20994;-89
2022/09/04 09:22:34;;;;;;;5.80;4.83;;;;;;;16.30;85.17;97101.03;1740632;82;20969;-89
2022/09/04 09:25:19;;;;;;;5.58;5.03;;;;;;;16.36;85.24;97094.97;1718870;82;21005;-89
2022/09/04 09:28:16;;;;;;;5.25;4.62;;;;;;;16.44;85.60;97096.10;1745642;81;20998;-89
2022/09/04 09:31:18;;;;;;;5.85;4.65;;;;;;;16.50;85.40;97094.78;1767001;81;21054;-87
2022/09/04 09:34:26;;;;;;;5.47;4.97;;;;;;;16.53;85.45;97093.56;1736865;81;21012;-88
2022/09/04 09:37:17;;;;;;;7.03;4.75;;;;;;;16.57;85.88;97093.45;1747828;81;21117;-88
2022/09/04 09:39:51;;;;;;;5.50;5.00;;;;;;;16.61;85.22;97095.20;1697683;84;21305;-88
2022/09/04 09:42:45;;;;;;;6.40;4.80;;;;;;;16.63;84.86;97091.36;1714798;82;21063;-88
2022/09/04 09:45:23;;;;;;;6.47;5.10;;;;;;;16.65;84.55;97094.58;1673320;84;21043;-88
2022/09/04 09:48:12;;;;;;;4.92;4.47;;;;;;;16.71;84.92;97093.80;1721329;82;20995;-88
2022/09/04 09:51:09;;;;;;;5.17;4.67;;;;;;;16.77;84.58;97090.88;1734027;82;20960;-88
2022/09/04 09:54:21;;;;;;;4.97;4.05;;;;;;;16.77;83.55;97090.37;1681656;84;21038;-88
2022/09/04 09:57:27;;;;;;;5.70;5.10;;;;;;;16.80;82.99;97095.22;1725965;83;20980;-88
2022/09/04 10:00:12;;;;;;;5.10;4.67;;;;;;;16.74;83.27;97105.19;1722388;83;21026;-88
2022/09/04 10:03:03;;;;;;;5.45;4.55;;;;;;;16.72;84.14;97105.91;1699589;83;21018;-88
2022/09/04 10:06:02;;;;;;;5.30;4.30;;;;;;;16.71;84.66;97105.60;1698844;83;21046;-88
2022/09/04 10:09:06;;;;;;;5.42;4.55;;;;;;;16.71;84.80;97109.54;1703551;83;21055;-88
2022/09/04 10:12:09;;;;;;;8.78;7.92;;;;;;;16.74;85.49;97105.70;1731002;83;21012;-88
2022/09/04 10:15:20;;;;;;;8.38;7.50;;;;;;;16.75;84.82;97103.38;1716432;83;21005;-88
2022/09/04 10:18:09;;;;;;;8.28;7.15;;;;;;;16.73;85.04;97111.45;1701539;83;21320;-89
2022/09/04 10:21:09;;;;;;;11.50;8.55;;;;;;;16.74;85.70;97110.44;1725394;83;21299;-88
2022/09/04 10:24:07;;;;;;;10.93;9.43;;;;;;;16.75;86.15;97121.23;1715223;82;21004;-88
2022/09/04 10:27:10;;;;;;;10.23;9.18;;;;;;;16.77;86.23;97116.62;1742137;82;21100;-88
2022/09/04 10:30:04;;;;;;;13.65;11.05;;;;;;;16.76;85.94;97122.88;1701146;84;20964;-88
2022/09/04 10:32:47;;;;;;;11.55;10.20;;;;;;;16.73;85.85;97120.64;1711140;83;21032;-88
2022/09/04 10:35:38;;;;;;;12.05;10.85;;;;;;;16.73;85.82;97125.88;1701629;84;21023;-89
2022/09/04 10:38:21;;;;;;;10.50;9.40;;;;;;;16.69;85.71;97122.56;1671962;84;21441;-88
2022/09/04 10:41:09;;;;;;;11.22;9.98;;;;;;;16.66;85.75;97122.44;1701520;83;21015;-88
2022/09/04 10:43:58;;;;;;;11.45;10.10;;;;;;;16.62;85.28;97131.73;1746621;81;20992;-88
2022/09/04 10:46:43;;;;;;;11.53;10.32;;;;;;;16.55;85.10;97126.96;1743998;81;21341;-88
2022/09/04 10:49:48;;;;;;;11.30;9.90;;;;;;;16.52;85.50;97131.30;1733455;81;21003;-88
2022/09/04 10:52:50;;;;;;;9.85;8.90;;;;;;;16.54;85.62;97131.91;1757359;81;20945;-88
2022/09/04 10:55:36;;;;;;;;;;;;;;;16.59;85.74;97128.17;1739455;81;21003;-88
2022/09/04 10:58:24;;;;;;;9.15;7.83;;;;;;;16.66;86.10;97126.38;1756434;81;20099;-88
2022/09/04 11:01:18;;;;;;;9.45;8.30;;;;;;;16.73;85.82;97124.58;1767453;81;21039;-88
2022/09/04 11:04:12;;;;;;;9.23;8.18;;;;;;;16.84;86.29;97126.30;1722698;82;21055;-89
2022/09/04 11:07:18;;;;;;;10.38;9.18;;;;;;;16.94;85.45;97128.02;1701327;83;21039;-88
2022/09/04 11:10:13;;;;;;;11.53;9.50;;;;;;;16.99;84.58;97136.08;1738966;82;20992;-88
2022/09/04 11:13:13;;;;;;;10.13;9.13;;;;;;;17.02;84.87;97136.48;1700022;82;20994;-88
2022/09/04 11:16:00;;;;;;;10.85;8.98;;;;;;;17.12;85.47;97137.39;1723720;83;21027;-89
2022/09/04 11:19:09;;;;;;;9.55;8.55;;;;;;;17.22;85.86;97135.63;1696965;83;21026;-88
2022/09/04 11:22:33;;;;;;;11.33;9.53;;;;;;;17.31;85.63;97130.48;1714074;83;20975;-89
2022/09/04 11:25:10;;;;;;;10.50;8.70;;;;;;;17.37;85.19;97135.70;1701338;83;21521;-88
2022/09/04 11:28:03;;;;;;;8.28;7.53;;;;;;;17.42;85.18;97132.98;1707467;83;21338;-89
2022/09/04 11:31:04;;;;;;;7.83;7.05;;;;;;;17.44;82.79;97134.90;1720386;83;21032;-88
2022/09/04 11:34:12;;;;;;;9.70;7.55;;;;;;;17.47;84.03;97127.91;1736654;81;21101;-88
2022/09/04 11:37:01;;;;;;;7.83;6.78;;;;;;;17.57;83.57;97129.58;1713302;81;21357;-88
2022/09/04 11:40:05;;;;;;;8.93;7.58;;;;;;;17.64;83.60;97127.24;1710681;84;21025;-88
2022/09/04 11:42:50;;;;;;;9.25;7.62;;;;;;;17.68;82.44;97125.03;1719991;83;20944;-88
2022/09/04 11:45:47;;;;;;;8.68;7.37;;;;;;;17.80;82.72;97124.69;1718717;83;21019;-88
2022/09/04 11:48:40;;;;;;;8.75;6.55;;;;;;;17.95;82.31;97125.73;1739225;81;21003;-88
2022/09/04 11:51:47;;;;;;;6.43;5.53;;;;;;;18.03;82.33;97124.16;1744555;81;20964;-88
2022/09/04 11:54:56;;;;;;;8.05;5.35;;;;;;;18.00;79.14;97128.02;1746853;81;21031;-89
2022/09/04 11:57:42;;;;;;;4.75;4.33;;;;;;;17.92;78.46;97133.53;1761668;81;21027;-88
2022/09/04 12:00:18;;;;;;;6.83;5.80;;;;;;;17.84;77.24;97138.21;1759673;81;21006;-88
2022/09/04 12:03:12;;;;;;;6.85;4.85;;;;;;;17.77;80.00;97137.44;1731887;81;20985;-89
2022/09/04 12:06:08;;;;;;;5.58;5.00;;;;;;;17.76;79.69;97134.01;1743375;81;21046;-88
2022/09/04 12:08:40;;;;;;;5.05;4.60;;;;;;;17.78;80.44;97133.80;1698446;83;20987;-86
2022/09/04 12:11:41;;;;;;;;;;;;;;;17.78;79.87;97133.80;1740050;81;20976;-85
2022/09/04 12:14:41;;;;;;;4.80;4.33;;;;;;;17.80;81.05;97132.57;1733482;81;20092;-86
2022/09/04 12:17:16;;;;;;;6.45;5.22;;;;;;;17.78;80.39;97129.86;1734796;81;21321;-86
2022/09/04 12:20:33;;;;;;;5.30;4.80;;;;;;;17.83;80.27;97116.88;1746011;81;20967;-86
2022/09/04 12:23:14;;;;;;;6.05;5.40;;;;;;;17.90;80.42;97120.30;1730899;81;20969;-86
2022/09/04 12:25:51;;;;;;;5.15;4.70;;;;;;;17.95;80.26;97122.59;1751912;81;21323;-86
2022/09/04 12:28:53;;;;;;;5.47;4.90;;;;;;;18.00;80.85;97120.13;1751490;81;20990;-86
2022/09/04 12:31:39;;;;;;;6.17;5.58;;;;;;;17.98;77.75;97117.42;1761124;81;21046;-86
2022/09/04 12:34:30;;;;;;;6.67;6.08;;;;;;;17.99;78.24;97122.97;1750985;81;21508;-86
2022/09/04 12:37:47;;;;;;;8.13;6.97;;;;;;;18.07;78.78;97124.06;1757618;81;20996;-86
2022/09/04 12:41:01;;;;;;;6.92;6.25;;;;;;;18.13;79.52;97121.08;1733082;81;20940;-88
2022/09/04 12:43:41;;;;;;;8.10;7.25;;;;;;;18.09;79.63;97122.02;1746611;82;21015;-86
2022/09/04 12:46:20;;;;;;;9.15;6.70;;;;;;;18.06;80.10;97123.77;1709951;82;21383;-88
2022/09/04 12:49:29;;;;;;;8.80;6.37;;;;;;;18.02;80.15;97123.86;1730940;81;21388;-88
2022/09/04 12:52:18;;;;;;;7.37;5.90;;;;;;;17.97;80.19;97130.27;1733536;81;21007;-88
2022/09/04 12:55:28;;;;;;;7.10;6.40;;;;;;;17.84;80.18;97131.64;1734773;82;21006;-88
2022/09/04 12:58:06;;;;;;;6.05;5.37;;;;;;;17.75;80.29;97143.42;1725209;82;20999;-87
2022/09/04 13:00:39;;;;;;;7.45;6.65;;;;;;;17.64;80.81;97152.72;1729613;81;22084;-87
2022/09/04 13:03:26;;;;;;;9.05;7.97;;;;;;;17.57;80.91;97136.98;1683448;82;20956;-87
2022/09/04 13:06:26;;;;;;;7.47;6.35;;;;;;;17.46;79.77;97149.44;1691772;83;21013;-88
2022/09/04 13:09:10;;;;;;;8.13;7.33;;;;;;;17.44;81.33;97154.60;1692203;83;21364;-86
2022/09/04 13:12:03;;;;;;;8.35;7.53;;;;;;;17.37;81.29;97158.53;1698463;83;20969;-88
2022/09/04 13:14:49;;;;;;;8.68;7.87;;;;;;;17.38;81.77;97165.41;1700796;83;20999;-88
2022/09/04 13:17:48;;;;;;;9.90;8.18;;;;;;;17.36;81.82;97169.55;1700341;83;21048;-88
2022/09/04 13:20:33;;;;;;;8.88;7.95;;;;;;;17.32;81.22;97173.61;1671080;85;20968;-88
2022/09/04 13:23:44;;;;;;;8.83;7.33;;;;;;;17.29;81.61;97172.70;1698354;83;20993;-88
2022/09/04 13:26:33;;;;;;;7.97;7.17;;;;;;;17.27;82.31;97169.99;1666655;83;20961;-87